Time;durP1;ratioP1;P1;durP2;ratioP2;P2;SDS_P1;SDS_P2;PMS_P1;PMS_P2;Temp;Humidity;BMP_temperature;BMP_pressure;BME280_temperature;BME280_humidity;BME280_pressure;Samples;Min_cycle;Max_cycle;Signal;HPM_P1;HPM_P2
2023/03/16 00:01:01;;;;;;;;;;;;;;;-144.98;100.00;62585.19;4937905;29;19934;-76
2023/03/16 00:04:04;;;;;;;;;;;;;;;-144.98;100.00;62585.19;4938685;29;20406;-75
2023/03/16 00:07:09;;;;;;;;;;;;;;;-144.98;100.00;62585.19;4938773;29;20496;-76
2023/03/16 00:10:12;;;;;;;;;;;;;;;-144.98;100.00;62585.19;4938889;29;20065;-76
2023/03/16 00:13:16;;;;;;;;;;;;;;;-144.98;100.00;62585.19;4938698;29;19925;-76
2023/03/16 00:16:19;;;;;;;;;;;;;;;-144.98;100.00;62585.19;4938983;29;19926;-75
2023/03/16 00:19:22;;;;;;;;;;;;;;;-144.98;100.00;62585.19;4938524;29;19998;-75
2023/03/16 00:22:27;;;;;;;;;;;;;;;-144.98;100.00;62585.19;4938386;29;20013;-75
2023/03/16 00:25:32;;;;;;;;;;;;;;;-144.98;100.00;62585.19;4938238;29;20355;-75
2023/03/16 00:28:35;;;;;;;;;;;;;;;-144.98;100.00;62585.19;4938317;29;19925;-75
2023/03/16 00:31:42;;;;;;;;;;;;;;;-144.98;100.00;62585.19;4938479;29;19966;-75
2023/03/16 00:34:46;;;;;;;;;;;;;;;-144.98;100.00;62585.19;4926644;29;19926;-76
2023/03/16 00:37:49;;;;;;;;;;;;;;;-144.98;100.00;62585.19;4926563;29;20063;-76
2023/03/16 00:40:54;;;;;;;;;;;;;;;-144.98;100.00;62585.19;4926641;29;20006;-76
2023/03/16 00:43:57;;;;;;;;;;;;;;;-144.98;100.00;62585.19;4926182;29;19926;-76
2023/03/16 00:47:00;;;;;;;;;;;;;;;-144.98;100.00;62585.19;4925777;29;19930;-77
2023/03/16 00:50:04;;;;;;;;;;;;;;;-144.98;100.00;62585.19;4926200;29;20430;-77
2023/03/16 00:53:07;;;;;;;;;;;;;;;-144.98;100.00;62585.19;4945401;29;19924;-77
2023/03/16 00:56:10;;;;;;;;;;;;;;;-144.98;100.00;62585.19;4957118;29;19941;-76
2023/03/16 00:59:14;;;;;;;;;;;;;;;-144.98;100.00;62585.19;4957087;29;20394;-75
2023/03/16 01:02:18;;;;;;;;;;;;;;;-144.98;100.00;62585.19;4955463;29;19970;-76
2023/03/16 01:05:21;;;;;;;;;;;;;;;-144.98;100.00;62585.19;4945150;29;19983;-76
2023/03/16 01:08:26;;;;;;;;;;;;;;;-144.98;100.00;62585.19;4945242;29;19968;-76
2023/03/16 01:11:32;;;;;;;;;;;;;;;-144.98;100.00;62585.19;4956227;28;19989;-76
2023/03/16 01:14:36;;;;;;;;;;;;;;;-144.98;100.00;62585.19;4944891;29;20354;-75
2023/03/16 01:17:40;;;;;;;;;;;;;;;-144.98;100.00;62585.19;4955738;29;20021;-75
2023/03/16 01:20:49;;;;;;;;;;;;;;;-144.98;100.00;62585.19;4931861;29;19925;-76
2023/03/16 01:23:59;;;;;;;;;;;;;;;-144.98;100.00;62585.19;4937641;29;19971;-76
2023/03/16 01:30:56;;;;;;;;;;;;;;;-144.98;100.00;62585.19;4925747;29;20406;-75
2023/03/16 01:34:02;;;;;;;;;;;;;;;-144.98;100.00;62585.19;4937469;29;19926;-75
2023/03/16 01:37:08;;;;;;;;;;;;;;;-144.98;100.00;62585.19;4925936;29;19926;-75
2023/03/16 01:40:25;;;;;;;;;;;;;;;-144.98;100.00;62585.19;4937262;29;20394;-75
2023/03/16 01:43:30;;;;;;;;;;;;;;;-144.98;100.00;62585.19;4925073;29;20007;-75
2023/03/16 01:46:34;;;;;;;;;;;;;;;-144.98;100.00;62585.19;4923886;29;20415;-76
2023/03/16 01:49:37;;;;;;;;;;;;;;;-144.98;100.00;62585.19;4924093;29;19930;-76
2023/03/16 01:52:41;;;;;;;;;;;;;;;-144.98;100.00;62585.19;4936998;29;19930;-75
2023/03/16 01:55:45;;;;;;;;;;;;;;;-144.98;100.00;62585.19;4936917;29;20002;-75
2023/03/16 01:58:50;;;;;;;;;;;;;;;-144.98;100.00;62585.19;4925023;29;19926;-76
2023/03/16 02:01:53;;;;;;;;;;;;;;;-144.98;100.00;62585.19;4924799;29;20075;-76
2023/03/16 02:05:04;;;;;;;;;;;;;;;-144.98;100.00;62585.19;4924905;29;19930;-76
2023/03/16 02:08:08;;;;;;;;;;;;;;;-144.98;100.00;62585.19;4924849;29;20327;-76
2023/03/16 02:11:16;;;;;;;;;;;;;;;-144.98;100.00;62585.19;4936683;29;20292;-75
2023/03/16 02:14:27;;;;;;;;;;;;;;;-144.98;100.00;62585.19;4924387;29;19926;-76
2023/03/16 02:17:33;;;;;;;;;;;;;;;-144.98;100.00;62585.19;4924667;29;20047;-76
2023/03/16 02:20:45;;;;;;;;;;;;;;;-144.98;100.00;62585.19;4936656;29;19926;-76
2023/03/16 02:23:50;;;;;;;;;;;;;;;-144.98;100.00;62585.19;4922518;29;20021;-76
2023/03/16 02:27:13;;;;;;;;;;;;;;;-144.98;100.00;62585.19;4923605;29;19970;-75
2023/03/16 02:30:18;;;;;;;;;;;;;;;-144.98;100.00;62585.19;4924196;29;19926;-75
2023/03/16 02:33:33;;;;;;;;;;;;;;;-144.98;100.00;62585.19;4935842;29;19926;-74
2023/03/16 02:36:38;;;;;;;;;;;;;;;-144.98;100.00;62585.19;4924344;29;19990;-75
2023/03/16 02:39:44;;;;;;;;;;;;;;;-144.98;100.00;62585.19;4924043;29;20058;-75
2023/03/16 02:43:01;;;;;;;;;;;;;;;-144.98;100.00;62585.19;4924410;29;19974;-76
2023/03/16 02:46:06;;;;;;;;;;;;;;;-144.98;100.00;62585.19;4923858;29;20045;-75
2023/03/16 02:49:16;;;;;;;;;;;;;;;-144.98;100.00;62585.19;4923427;29;19969;-76
2023/03/16 02:52:19;;;;;;;;;;;;;;;-144.98;100.00;62585.19;4922404;29;19933;-75
2023/03/16 02:55:23;;;;;;;;;;;;;;;-144.98;100.00;62585.19;4923512;29;20399;-75
2023/03/16 02:58:26;;;;;;;;;;;;;;;-144.98;100.00;62585.19;4934838;29;19930;-76
2023/03/16 03:01:31;;;;;;;;;;;;;;;-144.98;100.00;62585.19;4923131;29;20010;-76
2023/03/16 03:04:34;;;;;;;;;;;;;;;-144.98;100.00;62585.19;4923640;29;19977;-76
2023/03/16 03:07:37;;;;;;;;;;;;;;;-144.98;100.00;62585.19;4923559;29;19950;-76
2023/03/16 03:10:43;;;;;;;;;;;;;;;-144.98;100.00;62585.19;4924004;29;20001;-76
2023/03/16 03:13:46;;;;;;;;;;;;;;;-144.98;100.00;62585.19;4923630;29;20367;-75
2023/03/16 03:16:54;;;;;;;;;;;;;;;-144.98;100.00;62585.19;4923607;29;20414;-75
2023/03/16 03:19:58;;;;;;;;;;;;;;;-144.98;100.00;62585.19;4935926;29;19926;-75
2023/03/16 03:23:02;;;;;;;;;;;;;;;-144.98;100.00;62585.19;4935613;29;19926;-75
2023/03/16 03:26:05;;;;;;;;;;;;;;;-144.98;100.00;62585.19;4935442;29;20291;-75
2023/03/16 03:29:09;;;;;;;;;;;;;;;-144.98;100.00;62585.19;4934425;29;19925;-75
2023/03/16 03:32:12;;;;;;;;;;;;;;;-144.98;100.00;62585.19;4923561;29;20307;-75
2023/03/16 03:35:15;;;;;;;;;;;;;;;-144.98;100.00;62585.19;4923549;29;19925;-75
2023/03/16 03:38:19;;;;;;;;;;;;;;;-144.98;100.00;62585.19;4935354;29;19974;-75
2023/03/16 03:41:22;;;;;;;;;;;;;;;-144.98;100.00;62585.19;4923417;29;19975;-75
2023/03/16 03:44:26;;;;;;;;;;;;;;;-144.98;100.00;62585.19;4923426;29;20010;-75
2023/03/16 03:47:31;;;;;;;;;;;;;;;-144.98;100.00;62585.19;4922297;29;20017;-75
2023/03/16 03:50:37;;;;;;;;;;;;;;;-144.98;100.00;62585.19;4934187;29;19929;-75
2023/03/16 03:54:03;;;;;;;;;;;;;;;-144.98;100.00;62585.19;4926647;29;19930;-75
2023/03/16 03:57:23;;;;;;;;;;;;;;;-144.98;100.00;62585.19;4923079;29;20394;-74
2023/03/16 04:00:27;;;;;;;;;;;;;;;-144.98;100.00;62585.19;4912488;29;19974;-74
2023/03/16 04:03:30;;;;;;;;;;;;;;;-144.98;100.00;62585.19;4923457;29;19926;-74
2023/03/16 04:06:32;;;;;;;;;;;;;;;-144.98;100.00;62585.19;4934981;29;19982;-75
2023/03/16 04:09:35;;;;;;;;;;;;;;;-144.98;100.00;62585.19;4935192;29;19947;-75
2023/03/16 04:12:39;;;;;;;;;;;;;;;-144.98;100.00;62585.19;4923298;29;20394;-75
2023/03/16 04:15:45;;;;;;;;;;;;;;;-144.98;100.00;62585.19;4923297;29;20036;-75
2023/03/16 04:19:02;;;;;;;;;;;;;;;-144.98;100.00;62585.19;4923150;29;19977;-75
2023/03/16 04:22:06;;;;;;;;;;;;;;;-144.98;100.00;62585.19;4950244;28;19925;-76
2023/03/16 04:25:11;;;;;;;;;;;;;;;-144.98;100.00;62585.19;4939748;29;20358;-75
2023/03/16 04:28:16;;;;;;;;;;;;;;;-144.98;100.00;62585.19;4942669;29;19970;-75
2023/03/16 04:31:21;;;;;;;;;;;;;;;-144.98;100.00;62585.19;4942308;29;19945;-76
2023/03/16 04:34:25;;;;;;;;;;;;;;;-144.98;100.00;62585.19;4953990;29;19926;-75
2023/03/16 04:37:33;;;;;;;;;;;;;;;-144.98;100.00;62585.19;4938019;29;20305;-75
2023/03/16 04:40:37;;;;;;;;;;;;;;;-144.98;100.00;62585.19;4942152;29;19940;-75
2023/03/16 04:43:47;;;;;;;;;;;;;;;-144.98;100.00;62585.19;4942306;29;19926;-78
2023/03/16 04:46:56;;;;;;;;;;;;;;;-144.98;100.00;62585.19;4943856;29;19982;-76
2023/03/16 04:50:09;;;;;;;;;;;;;;;-144.98;100.00;62585.19;4945574;29;20002;-76
2023/03/16 04:53:13;;;;;;;;;;;;;;;-144.98;100.00;62585.19;4945358;29;20021;-75
2023/03/16 04:56:17;;;;;;;;;;;;;;;-144.98;100.00;62585.19;4945446;29;19924;-75
2023/03/16 04:59:20;;;;;;;;;;;;;;;-144.98;100.00;62585.19;4957214;29;19946;-75
2023/03/16 05:02:33;;;;;;;;;;;;;;;-144.98;100.00;62585.19;4945163;29;20446;-75
2023/03/16 05:05:38;;;;;;;;;;;;;;;-144.98;100.00;62585.19;4945198;29;19969;-73
2023/03/16 05:08:41;;;;;;;;;;;;;;;-144.98;100.00;62585.19;4942687;29;20393;-77
2023/03/16 05:11:45;;;;;;;;;;;;;;;-144.98;100.00;62585.19;4945153;29;19929;-76
2023/03/16 05:14:49;;;;;;;;;;;;;;;-144.98;100.00;62585.19;4956892;29;20296;-75
2023/03/16 05:18:13;;;;;;;;;;;;;;;-144.98;100.00;62585.19;4945363;29;19925;-75
2023/03/16 05:21:16;;;;;;;;;;;;;;;-144.98;100.00;62585.19;4944979;29;19950;-74
2023/03/16 05:24:35;;;;;;;;;;;;;;;-144.98;100.00;62585.19;4940897;29;20010;-69
2023/03/16 05:27:40;;;;;;;;;;;;;;;-144.98;100.00;62585.19;4943877;29;20022;-72
2023/03/16 05:30:46;;;;;;;;;;;;;;;-144.98;100.00;62585.19;4944493;29;20005;-73
2023/03/16 05:33:56;;;;;;;;;;;;;;;-144.98;100.00;62585.19;4944494;29;19926;-73
2023/03/16 05:37:00;;;;;;;;;;;;;;;-144.98;100.00;62585.19;4944614;29;20426;-72
2023/03/16 05:40:13;;;;;;;;;;;;;;;-144.98;100.00;62585.19;4944828;29;19929;-73
2023/03/16 05:43:16;;;;;;;;;;;;;;;-144.98;100.00;62585.19;4956526;29;19925;-73
2023/03/16 05:46:25;;;;;;;;;;;;;;;-144.98;100.00;62585.19;4943991;29;19929;-74
2023/03/16 05:49:29;;;;;;;;;;;;;;;-144.98;100.00;62585.19;4939778;29;20054;-73
2023/03/16 05:52:33;;;;;;;;;;;;;;;-144.98;100.00;62585.19;4935418;29;20288;-77
2023/03/16 05:55:40;;;;;;;;;;;;;;;-144.98;100.00;62585.19;4925077;29;19974;-73
2023/03/16 05:58:46;;;;;;;;;;;;;;;-144.98;100.00;62585.19;4925248;29;20362;-72
2023/03/16 06:01:51;;;;;;;;;;;;;;;-144.98;100.00;62585.19;4925126;29;20394;-72
2023/03/16 06:05:06;;;;;;;;;;;;;;;-144.98;100.00;62585.19;4925379;29;20014;-74
2023/03/16 06:08:10;;;;;;;;;;;;;;;-144.98;100.00;62585.19;4935759;29;19930;-74
2023/03/16 06:11:16;;;;;;;;;;;;;;;-144.98;100.00;62585.19;4924855;29;19974;-76
2023/03/16 06:14:22;;;;;;;;;;;;;;;-144.98;100.00;62585.19;4916795;29;20291;-78
2023/03/16 06:17:26;;;;;;;;;;;;;;;-144.98;100.00;62585.19;4924687;29;19943;-79
2023/03/16 06:20:30;;;;;;;;;;;;;;;-144.98;100.00;62585.19;4924864;29;19942;-79
2023/03/16 06:23:33;;;;;;;;;;;;;;;-144.98;100.00;62585.19;4913896;29;20514;-77
2023/03/16 06:26:37;;;;;;;;;;;;;;;-144.98;100.00;62585.19;4924853;29;19934;-77
2023/03/16 06:29:43;;;;;;;;;;;;;;;-144.98;100.00;62585.19;4913870;29;19937;-77
2023/03/16 06:32:47;;;;;;;;;;;;;;;-144.98;100.00;62585.19;4924290;29;19992;-78
2023/03/16 06:35:50;;;;;;;;;;;;;;;-144.98;100.00;62585.19;4924221;29;19985;-78
2023/03/16 06:39:03;;;;;;;;;;;;;;;-144.98;100.00;62585.19;4914465;29;19984;-78
2023/03/16 06:42:13;;;;;;;;;;;;;;;-144.98;100.00;62585.19;4924640;29;19998;-79
2023/03/16 06:45:16;;;;;;;;;;;;;;;-144.98;100.00;62585.19;4936408;29;19926;-80
2023/03/16 06:48:20;;;;;;;;;;;;;;;-144.98;100.00;62585.19;4924365;29;20393;-81
2023/03/16 06:51:26;;;;;;;;;;;;;;;-144.98;100.00;62585.19;4924193;29;19930;-81
2023/03/16 06:54:33;;;;;;;;;;;;;;;-144.98;100.00;62585.19;4936230;29;19974;-82
2023/03/16 06:57:36;;;;;;;;;;;;;;;-144.98;100.00;62585.19;4924371;29;19925;-79
2023/03/16 07:00:39;;;;;;;;;;;;;;;-144.98;100.00;62585.19;4935978;29;19926;-82
2023/03/16 07:03:43;;;;;;;;;;;;;;;-144.98;100.00;62585.19;4924366;29;20419;-78
2023/03/16 07:06:54;;;;;;;;;;;;;;;-144.98;100.00;62585.19;4912012;29;20387;-77
2023/03/16 07:09:56;;;;;;;;;;;;;;;-144.98;100.00;62585.19;4935925;29;19965;-76
2023/03/16 07:13:28;;;;;;;;;;;;;;;-144.98;100.00;62585.19;4935849;29;19966;-76
2023/03/16 07:16:31;;;;;;;;;;;;;;;-144.98;100.00;62585.19;4934623;29;19929;-77
2023/03/16 07:19:37;;;;;;;;;;;;;;;-144.98;100.00;62585.19;4923497;29;19926;-76
2023/03/16 07:22:40;;;;;;;;;;;;;;;-144.98;100.00;62585.19;4923623;29;19926;-76
2023/03/16 07:25:46;;;;;;;;;;;;;;;-144.98;100.00;62585.19;4922788;29;20291;-75
2023/03/16 07:28:52;;;;;;;;;;;;;;;-144.98;100.00;62585.19;4923757;29;19943;-71
2023/03/16 07:31:56;;;;;;;;;;;;;;;-144.98;100.00;62585.19;4923818;29;19975;-74
2023/03/16 07:35:05;;;;;;;;;;;;;;;-144.98;100.00;62585.19;4923898;29;19974;-73
2023/03/16 07:38:11;;;;;;;;;;;;;;;-144.98;100.00;62585.19;4923685;29;19986;-73
2023/03/16 07:41:15;;;;;;;;;;;;;;;-144.98;100.00;62585.19;4923230;29;20299;-73
2023/03/16 07:44:18;;;;;;;;;;;;;;;-144.98;100.00;62585.19;4923580;29;19975;-73
2023/03/16 07:47:25;;;;;;;;;;;;;;;-144.98;100.00;62585.19;4923636;29;19929;-73
2023/03/16 07:50:30;;;;;;;;;;;;;;;-144.98;100.00;62585.19;4922765;29;20414;-73
2023/03/16 07:53:34;;;;;;;;;;;;;;;-144.98;100.00;62585.19;4942551;29;19942;-76
2023/03/16 07:56:50;;;;;;;;;;;;;;;-144.98;100.00;62585.19;4942692;29;19925;-76
2023/03/16 08:00:13;;;;;;;;;;;;;;;-144.98;100.00;62585.19;4942617;29;20302;-72
2023/03/16 08:03:15;;;;;;;;;;;;;;;-144.98;100.00;62585.19;4954735;29;19924;-72
2023/03/16 08:06:24;;;;;;;;;;;;;;;-144.98;100.00;62585.19;4942590;29;20078;-75
2023/03/16 08:09:27;;;;;;;;;;;;;;;-144.98;100.00;62585.19;4952595;29;19925;-74
2023/03/16 08:12:30;;;;;;;;;;;;;;;-144.98;100.00;62585.19;4941042;29;20295;-76
2023/03/16 08:15:36;;;;;;;;;;;;;;;-144.98;100.00;62585.19;4941855;29;20061;-74
2023/03/16 08:18:49;;;;;;;;;;;;;;;-144.98;100.00;62585.19;4941727;29;20400;-75
2023/03/16 08:21:52;;;;;;;;;;;;;;;-144.98;100.00;62585.19;4944522;29;19966;-75
2023/03/16 08:24:55;;;;;;;;;;;;;;;-144.98;100.00;62585.19;4934981;29;20082;-75
2023/03/16 08:27:58;;;;;;;;;;;;;;;-144.98;100.00;62585.19;4945879;29;19989;-75
2023/03/16 08:31:05;;;;;;;;;;;;;;;-144.98;100.00;62585.19;4957619;29;19926;-75
2023/03/16 08:34:16;;;;;;;;;;;;;;;-144.98;100.00;62585.19;4945884;29;19926;-72
2023/03/16 08:37:20;;;;;;;;;;;;;;;-144.98;100.00;62585.19;4945833;29;19925;-69
2023/03/16 08:40:25;;;;;;;;;;;;;;;-144.98;100.00;62585.19;4945719;29;20060;-73
2023/03/16 08:43:31;;;;;;;;;;;;;;;-144.98;100.00;62585.19;4945535;29;19925;-68
2023/03/16 08:46:35;;;;;;;;;;;;;;;-144.98;100.00;62585.19;4957506;29;19943;-65
2023/03/16 08:49:38;;;;;;;;;;;;;;;-144.98;100.00;62585.19;4945989;29;19926;-65
2023/03/16 08:52:50;;;;;;;;;;;;;;;-144.98;100.00;62585.19;4945523;29;19989;-66
2023/03/16 08:56:05;;;;;;;;;;;;;;;-144.98;100.00;62585.19;4957471;29;20290;-66
2023/03/16 08:59:08;;;;;;;;;;;;;;;-144.98;100.00;62585.19;4957334;29;19929;-69
2023/03/16 09:02:12;;;;;;;;;;;;;;;-144.98;100.00;62585.19;4957654;29;20338;-69
2023/03/16 09:05:17;;;;;;;;;;;;;;;-144.98;100.00;62585.19;4957521;29;19925;-70
2023/03/16 09:08:20;;;;;;;;;;;;;;;-144.98;100.00;62585.19;4957127;29;20291;-69
2023/03/16 09:11:25;;;;;;;;;;;;;;;-144.98;100.00;62585.19;4957139;29;19925;-69
2023/03/16 09:14:28;;;;;;;;;;;;;;;-144.98;100.00;62585.19;4956965;29;20350;-71
2023/03/16 09:17:32;;;;;;;;;;;;;;;-144.98;100.00;62585.19;4956988;29;19925;-71
2023/03/16 09:20:36;;;;;;;;;;;;;;;-144.98;100.00;62585.19;4957059;29;20394;-71
2023/03/16 09:23:40;;;;;;;;;;;;;;;-144.98;100.00;62585.19;4956822;28;19977;-70
2023/03/16 09:26:44;;;;;;;;;;;;;;;-144.98;100.00;62585.19;4956785;29;19950;-73
2023/03/16 09:29:48;;;;;;;;;;;;;;;-144.98;100.00;62585.19;4956710;29;20302;-72
2023/03/16 09:32:51;;;;;;;;;;;;;;;-144.98;100.00;62585.19;4956059;28;19965;-75
2023/03/16 09:35:56;;;;;;;;;;;;;;;-144.98;100.00;62585.19;4956532;29;19973;-74
2023/03/16 09:38:59;;;;;;;;;;;;;;;-144.98;100.00;62585.19;4956768;29;19968;-72
2023/03/16 09:42:05;;;;;;;;;;;;;;;-144.98;100.00;62585.19;4956005;29;19941;-73
2023/03/16 09:45:28;;;;;;;;;;;;;;;-144.98;100.00;62585.19;4956734;29;20295;-75
2023/03/16 09:48:51;;;;;;;;;;;;;;;-144.98;100.00;62585.19;4947276;29;20025;-73
2023/03/16 09:52:05;;;;;;;;;;;;;;;-144.98;100.00;62585.19;4927894;29;19930;-73
2023/03/16 09:55:29;;;;;;;;;;;;;;;-144.98;100.00;62585.19;4924954;29;20446;-73
2023/03/16 09:58:35;;;;;;;;;;;;;;;-144.98;100.00;62585.19;4924313;29;19925;-73
2023/03/16 10:01:53;;;;;;;;;;;;;;;-144.98;100.00;62585.19;4933208;29;19926;-74
2023/03/16 10:05:05;;;;;;;;;;;;;;;-144.98;100.00;62585.19;4936845;29;20415;-73
2023/03/16 10:12:47;;;;;;;;;;;;;;;-144.98;100.00;62585.19;4894859;29;19999;-73
2023/03/16 10:15:52;;;;;;;;;;;;;;;-144.98;100.00;62585.19;4910822;29;20046;-74
2023/03/16 10:19:06;;;;;;;;;;;;;;;-144.98;100.00;62585.19;4936665;29;19926;-73
2023/03/16 10:22:21;;;;;;;;;;;;;;;-144.98;100.00;62585.19;4936586;29;19926;-74
2023/03/16 10:25:26;;;;;;;;;;;;;;;-144.98;100.00;62585.19;4936740;29;20066;-75
2023/03/16 10:28:30;;;;;;;;;;;;;;;-144.98;100.00;62585.19;4936737;29;20386;-74
2023/03/16 10:31:34;;;;;;;;;;;;;;;-144.98;100.00;62585.19;4936797;29;20291;-74
2023/03/16 10:34:37;;;;;;;;;;;;;;;-144.98;100.00;62585.19;4936607;29;19926;-75
2023/03/16 10:37:40;;;;;;;;;;;;;;;-144.98;100.00;62585.19;4936597;29;19982;-75
2023/03/16 10:40:44;;;;;;;;;;;;;;;-144.98;100.00;62585.19;4936455;29;20335;-74
2023/03/16 10:43:51;;;;;;;;;;;;;;;-144.98;100.00;62585.19;4923744;28;19926;-72
2023/03/16 10:47:03;;;;;;;;;;;;;;;-144.98;100.00;62585.19;4936161;29;20434;-72
2023/03/16 10:50:15;;;;;;;;;;;;;;;-144.98;100.00;62585.19;4936407;29;19926;-72
2023/03/16 10:53:39;;;;;;;;;;;;;;;-144.98;100.00;62585.19;4936341;29;19984;-72
2023/03/16 10:56:42;;;;;;;;;;;;;;;-144.98;100.00;62585.19;4935510;29;19926;-71
2023/03/16 10:59:50;;;;;;;;;;;;;;;-144.98;100.00;62585.19;4935341;29;19925;-72
2023/03/16 11:02:55;;;;;;;;;;;;;;;-144.98;100.00;62585.19;4936119;29;20450;-72
2023/03/16 11:06:00;;;;;;;;;;;;;;;-144.98;100.00;62585.19;4935517;29;19929;-72
2023/03/16 11:09:07;;;;;;;;;;;;;;;-144.98;100.00;62585.19;4923721;29;19973;-73
2023/03/16 11:12:20;;;;;;;;;;;;;;;-144.98;100.00;62585.19;4935720;29;20347;-73
2023/03/16 11:15:24;;;;;;;;;;;;;;;-144.98;100.00;62585.19;4935552;29;19925;-74
2023/03/16 11:18:29;;;;;;;;;;;;;;;-144.98;100.00;62585.19;4935744;29;19925;-74
2023/03/16 11:21:43;;;;;;;;;;;;;;;-144.98;100.00;62585.19;4935624;29;19925;-72
2023/03/16 11:24:59;;;;;;;;;;;;;;;-144.98;100.00;62585.19;4935497;29;19974;-76
2023/03/16 11:28:11;;;;;;;;;;;;;;;-144.98;100.00;62585.19;4935434;29;19977;-75
2023/03/16 11:31:26;;;;;;;;;;;;;;;-144.98;100.00;62585.19;4935867;29;20358;-76
2023/03/16 11:34:30;;;;;;;;;;;;;;;-144.98;100.00;62585.19;4935571;29;20407;-75
2023/03/16 11:37:36;;;;;;;;;;;;;;;-144.98;100.00;62585.19;4935591;29;20107;-78
2023/03/16 11:40:44;;;;;;;;;;;;;;;-144.98;100.00;62585.19;4935419;29;19926;-76
2023/03/16 11:43:48;;;;;;;;;;;;;;;-144.98;100.00;62585.19;4935615;29;19925;-76
2023/03/16 11:47:16;;;;;;;;;;;;;;;-144.98;100.00;62585.19;4935328;29;19930;-75
2023/03/16 11:50:24;;;;;;;;;;;;;;;-144.98;100.00;62585.19;4933513;29;19975;-77
2023/03/16 11:53:37;;;;;;;;;;;;;;;-144.98;100.00;62585.19;4953068;29;19926;-75
2023/03/16 11:56:53;;;;;;;;;;;;;;;-144.98;100.00;62585.19;4956784;28;19930;-76
2023/03/16 12:00:19;;;;;;;;;;;;;;;-144.98;100.00;62585.19;4958552;29;19925;-77
2023/03/16 12:03:35;;;;;;;;;;;;;;;-144.98;100.00;62585.19;4946412;29;19941;-74
2023/03/16 12:06:51;;;;;;;;;;;;;;;-144.98;100.00;62585.19;4958264;29;19945;-75
2023/03/16 12:10:08;;;;;;;;;;;;;;;-144.98;100.00;62585.19;4946705;29;20417;-74
2023/03/16 12:13:29;;;;;;;;;;;;;;;-144.98;100.00;62585.19;4958319;29;19925;-75
2023/03/16 12:16:45;;;;;;;;;;;;;;;-144.98;100.00;62585.19;4957923;29;20302;-74
2023/03/16 12:19:55;;;;;;;;;;;;;;;-144.98;100.00;62585.19;4943297;29;19989;-76
2023/03/16 12:23:03;;;;;;;;;;;;;;;-144.98;100.00;62585.19;4943247;28;20905;-77
2023/03/16 12:26:07;;;;;;;;;;;;;;;-144.98;100.00;62585.19;4942680;29;19933;-76
2023/03/16 12:29:29;;;;;;;;;;;;;;;-144.98;100.00;62585.19;4943108;29;20314;-76
2023/03/16 12:32:38;;;;;;;;;;;;;;;-144.98;100.00;62585.19;4943757;29;19989;-76
2023/03/16 12:35:47;;;;;;;;;;;;;;;-144.98;100.00;62585.19;4939891;29;19965;-76
2023/03/16 12:38:57;;;;;;;;;;;;;;;-144.98;100.00;62585.19;4931739;29;19973;-73
2023/03/16 12:42:15;;;;;;;;;;;;;;;-144.98;100.00;62585.19;4944227;29;20365;-72
2023/03/16 12:45:37;;;;;;;;;;;;;;;-144.98;100.00;62585.19;4944415;29;20006;-73
2023/03/16 12:48:46;;;;;;;;;;;;;;;-144.98;100.00;62585.19;4944600;29;19993;-73
2023/03/16 12:52:02;;;;;;;;;;;;;;;-144.98;100.00;62585.19;4947534;29;19977;-75
2023/03/16 12:55:14;;;;;;;;;;;;;;;-144.98;100.00;62585.19;4948322;29;19974;-74
2023/03/16 12:58:17;;;;;;;;;;;;;;;-144.98;100.00;62585.19;4947153;29;19947;-73
2023/03/16 13:01:27;;;;;;;;;;;;;;;-144.98;100.00;62585.19;4938086;29;20356;-73
2023/03/16 13:04:32;;;;;;;;;;;;;;;-144.98;100.00;62585.19;4937873;29;19975;-73
2023/03/16 13:07:37;;;;;;;;;;;;;;;-144.98;100.00;62585.19;4935442;29;20415;-74
2023/03/16 13:10:41;;;;;;;;;;;;;;;-144.98;100.00;62585.19;4937487;29;20004;-73
2023/03/16 13:13:59;;;;;;;;;;;;;;;-144.98;100.00;62585.19;4937910;29;19975;-75
2023/03/16 13:17:06;;;;;;;;;;;;;;;-144.98;100.00;62585.19;4937979;29;19966;-75
2023/03/16 13:20:14;;;;;;;;;;;;;;;-144.98;100.00;62585.19;4937891;29;19950;-76
2023/03/16 13:23:23;;;;;;;;;;;;;;;-144.98;100.00;62585.19;4938057;29;19925;-75
2023/03/16 13:26:36;;;;;;;;;;;;;;;-144.98;100.00;62585.19;4937616;29;19970;-75
2023/03/16 13:29:40;;;;;;;;;;;;;;;-144.98;100.00;62585.19;4937929;29;19966;-75
2023/03/16 13:32:43;;;;;;;;;;;;;;;-144.98;100.00;62585.19;4937833;29;19965;-76
2023/03/16 13:35:48;;;;;;;;;;;;;;;-144.98;100.00;62585.19;4937010;29;20385;-77
2023/03/16 13:39:10;;;;;;;;;;;;;;;-144.98;100.00;62585.19;4937249;29;20398;-74
2023/03/16 13:42:15;;;;;;;;;;;;;;;-144.98;100.00;62585.19;4936819;29;19967;-77
2023/03/16 13:45:21;;;;;;;;;;;;;;;-144.98;100.00;62585.19;4925896;29;19942;-75
2023/03/16 13:48:24;;;;;;;;;;;;;;;-144.98;100.00;62585.19;4942820;29;19944;-75
2023/03/16 13:51:30;;;;;;;;;;;;;;;-144.98;100.00;62585.19;4945229;29;19969;-75
2023/03/16 13:54:36;;;;;;;;;;;;;;;-144.98;100.00;62585.19;4956119;29;20082;-76
2023/03/16 13:57:43;;;;;;;;;;;;;;;-144.98;100.00;62585.19;4944551;29;19941;-75
2023/03/16 14:00:46;;;;;;;;;;;;;;;-144.98;100.00;62585.19;4956230;29;19981;-75
2023/03/16 14:03:51;;;;;;;;;;;;;;;-144.98;100.00;62585.19;4944422;29;19938;-75
2023/03/16 14:06:59;;;;;;;;;;;;;;;-144.98;100.00;62585.19;4956178;29;19986;-76
2023/03/16 14:10:04;;;;;;;;;;;;;;;-144.98;100.00;62585.19;4956352;29;19925;-76
2023/03/16 14:13:26;;;;;;;;;;;;;;;-144.98;100.00;62585.19;4944120;29;19982;-76
2023/03/16 14:16:30;;;;;;;;;;;;;;;-144.98;100.00;62585.19;4951458;29;20070;-76
2023/03/16 14:19:41;;;;;;;;;;;;;;;-144.98;100.00;62585.19;4955597;28;19925;-76
2023/03/16 14:22:45;;;;;;;;;;;;;;;-144.98;100.00;62585.19;4955846;28;19974;-76
2023/03/16 14:29:29;;;;;;;;;;;;;;;-144.98;100.00;62585.19;4955318;29;19934;-76
2023/03/16 14:32:33;;;;;;;;;;;;;;;-144.98;100.00;62585.19;4954980;29;19924;-74
2023/03/16 14:35:41;;;;;;;;;;;;;;;-144.98;100.00;62585.19;4955613;29;20046;-76
2023/03/16 14:38:47;;;;;;;;;;;;;;;-144.98;100.00;62585.19;4955617;29;19973;-76
2023/03/16 14:41:55;;;;;;;;;;;;;;;-144.98;100.00;62585.19;4955463;29;19925;-78
2023/03/16 14:44:59;;;;;;;;;;;;;;;-144.98;100.00;62585.19;4932609;29;19997;-75
2023/03/16 14:48:15;;;;;;;;;;;;;;;-144.98;100.00;62585.19;4954372;29;20160;-76
2023/03/16 14:51:18;;;;;;;;;;;;;;;-144.98;100.00;62585.19;4954138;29;19998;-76
2023/03/16 14:54:21;;;;;;;;;;;;;;;-144.98;100.00;62585.19;4955409;29;20021;-75
2023/03/16 14:57:50;;;;;;;;;;;;;;;-144.98;100.00;62585.19;4955566;29;19972;-76
2023/03/16 15:00:56;;;;;;;;;;;;;;;-144.98;100.00;62585.19;4955186;29;19925;-78
2023/03/16 15:04:01;;;;;;;;;;;;;;;-144.98;100.00;62585.19;4955013;29;19925;-77
2023/03/16 15:07:14;;;;;;;;;;;;;;;-144.98;100.00;62585.19;4955238;29;19928;-76
2023/03/16 15:10:36;;;;;;;;;;;;;;;-144.98;100.00;62585.19;4955501;29;19924;-80
2023/03/16 15:16:42;;;;;;;;;;;;;;;-144.98;100.00;62585.19;4954885;29;20013;-80
2023/03/16 15:19:45;;;;;;;;;;;;;;;-144.98;100.00;62585.19;4955135;29;20438;-76
2023/03/16 15:22:49;;;;;;;;;;;;;;;-144.98;100.00;62585.19;4954694;28;19941;-76
2023/03/16 15:25:58;;;;;;;;;;;;;;;-144.98;100.00;62585.19;4955035;29;19926;-76
2023/03/16 15:29:03;;;;;;;;;;;;;;;-144.98;100.00;62585.19;4954684;29;20018;-79
2023/03/16 15:32:12;;;;;;;;;;;;;;;-144.98;100.00;62585.19;4955073;29;19925;-80
2023/03/16 15:35:16;;;;;;;;;;;;;;;-144.98;100.00;62585.19;4955089;29;19989;-78
2023/03/16 15:38:27;;;;;;;;;;;;;;;-144.98;100.00;62585.19;4954757;29;19926;-79
2023/03/16 15:41:31;;;;;;;;;;;;;;;-144.98;100.00;62585.19;4942761;29;19940;-78
2023/03/16 15:44:35;;;;;;;;;;;;;;;-144.98;100.00;62585.19;4954678;29;20006;-78
2023/03/16 15:47:41;;;;;;;;;;;;;;;-144.98;100.00;62585.19;4954703;29;20334;-77
2023/03/16 15:50:55;;;;;;;;;;;;;;;-144.98;100.00;62585.19;4942674;29;19978;-80
2023/03/16 15:54:05;;;;;;;;;;;;;;;-144.98;100.00;62585.19;4954606;29;19925;-79